sensor_id;sensor_type;location;lat;lon;timestamp;pressure;altitude;pressure_sealevel;temperature;humidity
81397;BME280;70852;49.908;8.126;2024-01-30T00:00:39;101668.56;;;-0.83;89.54
81397;BME280;70852;49.908;8.126;2024-01-30T00:03:06;101671.28;;;-0.83;89.63
81397;BME280;70852;49.908;8.126;2024-01-30T00:05:34;101668.56;;;-0.77;89.28
81397;BME280;70852;49.908;8.126;2024-01-30T00:07:59;101667.13;;;-0.86;89.64
81397;BME280;70852;49.908;8.126;2024-01-30T00:10:26;101663.59;;;-0.86;89.45
81397;BME280;70852;49.908;8.126;2024-01-30T00:12:54;101668.38;;;-0.88;89.32
81397;BME280;70852;49.908;8.126;2024-01-30T00:15:19;101673.16;;;-0.84;89.83
81397;BME280;70852;49.908;8.126;2024-01-30T00:17:47;101673.16;;;-0.84;89.70
81397;BME280;70852;49.908;8.126;2024-01-30T00:20:13;101667.75;;;-0.90;89.42
81397;BME280;70852;49.908;8.126;2024-01-30T00:22:38;101672.16;;;-0.96;89.88
81397;BME280;70852;49.908;8.126;2024-01-30T00:25:06;101672.34;;;-0.97;89.36
81397;BME280;70852;49.908;8.126;2024-01-30T00:27:31;101668.56;;;-0.90;89.47
81397;BME280;70852;49.908;8.126;2024-01-30T00:29:58;101672.53;;;-0.92;89.22
81397;BME280;70852;49.908;8.126;2024-01-30T00:32:26;101672.53;;;-0.92;89.31
81397;BME280;70852;49.908;8.126;2024-01-30T00:34:54;101674.41;;;-0.93;89.91
81397;BME280;70852;49.908;8.126;2024-01-30T00:37:19;101674.03;;;-0.96;90.03
81397;BME280;70852;49.908;8.126;2024-01-30T00:39:44;101667.13;;;-0.99;89.88
81397;BME280;70852;49.908;8.126;2024-01-30T00:42:09;101670.88;;;-1.00;89.63
81397;BME280;70852;49.908;8.126;2024-01-30T00:44:37;101669.81;;;-1.05;89.68
81397;BME280;70852;49.908;8.126;2024-01-30T00:47:04;101674.22;;;-1.11;89.56
81397;BME280;70852;49.908;8.126;2024-01-30T00:49:29;101677.56;;;-1.09;89.65
81397;BME280;70852;49.908;8.126;2024-01-30T00:51:54;101670.69;;;-1.12;89.78
81397;BME280;70852;49.908;8.126;2024-01-30T00:54:20;101657.13;;;-1.18;90.10
81397;BME280;70852;49.908;8.126;2024-01-30T00:56:45;101664.81;;;-1.15;90.25
81397;BME280;70852;49.908;8.126;2024-01-30T00:59:13;101672.13;;;-1.16;90.00
81397;BME280;70852;49.908;8.126;2024-01-30T01:01:41;101664.22;;;-1.17;90.32
81397;BME280;70852;49.908;8.126;2024-01-30T01:04:08;101663.38;;;-1.18;90.38
81397;BME280;70852;49.908;8.126;2024-01-30T01:06:36;101664.22;;;-1.17;90.29
81397;BME280;70852;49.908;8.126;2024-01-30T01:09:04;101666.94;;;-1.17;89.96
81397;BME280;70852;49.908;8.126;2024-01-30T01:11:29;101673.59;;;-1.13;90.26
81397;BME280;70852;49.908;8.126;2024-01-30T01:13:58;101672.75;;;-1.14;89.96
81397;BME280;70852;49.908;8.126;2024-01-30T01:16:26;101668.38;;;-1.15;89.87
81397;BME280;70852;49.908;8.126;2024-01-30T01:18:51;101671.28;;;-1.16;89.84
81397;BME280;70852;49.908;8.126;2024-01-30T01:21:19;101670.66;;;-1.25;89.71
81397;BME280;70852;49.908;8.126;2024-01-30T01:23:44;101670.47;;;-1.23;90.00
81397;BME280;70852;49.908;8.126;2024-01-30T01:26:12;101671.94;;;-1.27;89.91
81397;BME280;70852;49.908;8.126;2024-01-30T01:28:40;101666.53;;;-1.27;90.11
81397;BME280;70852;49.908;8.126;2024-01-30T01:31:06;101669.22;;;-1.27;90.12
81397;BME280;70852;49.908;8.126;2024-01-30T01:33:34;101671.94;;;-1.27;89.67
81397;BME280;70852;49.908;8.126;2024-01-30T01:36:03;101661.28;;;-1.35;90.04
81397;BME280;70852;49.908;8.126;2024-01-30T01:38:30;101666.69;;;-1.35;90.35
81397;BME280;70852;49.908;8.126;2024-01-30T01:40:56;101661.47;;;-1.37;90.25
81397;BME280;70852;49.908;8.126;2024-01-30T01:43:25;101665.88;;;-1.29;89.69
81397;BME280;70852;49.908;8.126;2024-01-30T01:45:53;101671.28;;;-1.36;89.88
81397;BME280;70852;49.908;8.126;2024-01-30T01:48:18;101665.25;;;-1.38;89.82
81397;BME280;70852;49.908;8.126;2024-01-30T01:50:44;101666.47;;;-1.47;89.64
81397;BME280;70852;49.908;8.126;2024-01-30T01:53:15;101656.47;;;-1.47;90.22
81397;BME280;70852;49.908;8.126;2024-01-30T01:55:40;101665.44;;;-1.46;90.39
81397;BME280;70852;49.908;8.126;2024-01-30T01:58:10;101671.69;;;-1.45;90.18
81397;BME280;70852;49.908;8.126;2024-01-30T02:00:38;101663.59;;;-1.39;89.92
81397;BME280;70852;49.908;8.126;2024-01-30T02:03:08;101659.22;;;-1.40;89.66
81397;BME280;70852;49.908;8.126;2024-01-30T02:05:35;101662.75;;;-1.39;89.90
81397;BME280;70852;49.908;8.126;2024-01-30T02:08:01;101653.75;;;-1.47;89.62
81397;BME280;70852;49.908;8.126;2024-01-30T02:10:26;101660.66;;;-1.44;89.77
81397;BME280;70852;49.908;8.126;2024-01-30T02:12:51;101652.94;;;-1.40;90.18
81397;BME280;70852;49.908;8.126;2024-01-30T02:15:17;101650.66;;;-1.43;89.91
81397;BME280;70852;49.908;8.126;2024-01-30T02:17:43;101652.31;;;-1.42;90.90
81397;BME280;70852;49.908;8.126;2024-01-30T02:20:14;101652.75;;;-1.39;91.20
81397;BME280;70852;49.908;8.126;2024-01-30T02:22:42;101654.63;;;-1.39;90.43
81397;BME280;70852;49.908;8.126;2024-01-30T02:25:08;101658.56;;;-1.35;90.20
81397;BME280;70852;49.908;8.126;2024-01-30T02:27:33;101650.25;;;-1.40;90.28
81397;BME280;70852;49.908;8.126;2024-01-30T02:29:59;101655.22;;;-1.37;90.04
81397;BME280;70852;49.908;8.126;2024-01-30T02:32:29;101650.47;;;-1.29;90.15
81397;BME280;70852;49.908;8.126;2024-01-30T02:34:59;101661.09;;;-1.27;89.88
81397;BME280;70852;49.908;8.126;2024-01-30T02:37:24;101658.38;;;-1.27;90.01
81397;BME280;70852;49.908;8.126;2024-01-30T02:39:50;101662.34;;;-1.30;89.92
81397;BME280;70852;49.908;8.126;2024-01-30T02:42:18;101660.47;;;-1.29;90.59
81397;BME280;70852;49.908;8.126;2024-01-30T02:44:47;101659.00;;;-1.25;90.55
81397;BME280;70852;49.908;8.126;2024-01-30T02:47:15;101660.25;;;-1.21;90.94
81397;BME280;70852;49.908;8.126;2024-01-30T02:49:40;101661.50;;;-1.17;90.21
81397;BME280;70852;49.908;8.126;2024-01-30T02:52:05;101653.56;;;-1.25;91.58
81397;BME280;70852;49.908;8.126;2024-01-30T02:54:33;101654.41;;;-1.25;91.47
81397;BME280;70852;49.908;8.126;2024-01-30T02:57:03;101654.22;;;-1.30;91.40
81397;BME280;70852;49.908;8.126;2024-01-30T02:59:28;101649.41;;;-1.21;90.73
81397;BME280;70852;49.908;8.126;2024-01-30T03:01:54;101645.88;;;-1.28;90.95
81397;BME280;70852;49.908;8.126;2024-01-30T03:04:19;101647.31;;;-1.26;90.51
81397;BME280;70852;49.908;8.126;2024-01-30T03:06:45;101646.50;;;-1.39;91.60
81397;BME280;70852;49.908;8.126;2024-01-30T03:09:16;101645.84;;;-1.35;91.56
81397;BME280;70852;49.908;8.126;2024-01-30T03:11:41;101642.72;;;-1.25;91.04
81397;BME280;70852;49.908;8.126;2024-01-30T03:14:09;101647.53;;;-1.27;91.13
81397;BME280;70852;49.908;8.126;2024-01-30T03:16:37;101652.97;;;-1.27;90.97
81397;BME280;70852;49.908;8.126;2024-01-30T03:19:07;101647.75;;;-1.29;91.24
81397;BME280;70852;49.908;8.126;2024-01-30T03:21:39;101653.78;;;-1.33;91.10
81397;BME280;70852;49.908;8.126;2024-01-30T03:24:07;101654.19;;;-1.43;90.79
81397;BME280;70852;49.908;8.126;2024-01-30T03:26:32;101645.22;;;-1.50;91.89
81397;BME280;70852;49.908;8.126;2024-01-30T03:28:59;101645.63;;;-1.47;91.91
81397;BME280;70852;49.908;8.126;2024-01-30T03:31:25;101647.09;;;-1.37;91.83
81397;BME280;70852;49.908;8.126;2024-01-30T03:33:50;101644.41;;;-1.51;92.36
81397;BME280;70852;49.908;8.126;2024-01-30T03:36:15;101646.47;;;-1.46;92.92
81397;BME280;70852;49.908;8.126;2024-01-30T03:38:41;101643.34;;;-1.50;93.30
81397;BME280;70852;49.908;8.126;2024-01-30T03:41:09;101633.34;;;-1.49;92.95
81397;BME280;70852;49.908;8.126;2024-01-30T03:43:37;101636.25;;;-1.44;92.84
81397;BME280;70852;49.908;8.126;2024-01-30T03:46:04;101634.63;;;-1.38;92.52
81397;BME280;70852;49.908;8.126;2024-01-30T03:48:29;101639.59;;;-1.35;92.96
81397;BME280;70852;49.908;8.126;2024-01-30T03:50:55;101636.47;;;-1.26;92.86
81397;BME280;70852;49.908;8.126;2024-01-30T03:53:20;101638.75;;;-1.16;93.26
81397;BME280;70852;49.908;8.126;2024-01-30T03:55:46;101642.31;;;-1.16;93.10
81397;BME280;70852;49.908;8.126;2024-01-30T03:58:11;101636.25;;;-1.24;93.40
81397;BME280;70852;49.908;8.126;2024-01-30T04:00:39;101643.34;;;-1.36;93.77
81397;BME280;70852;49.908;8.126;2024-01-30T04:03:06;101645.22;;;-1.37;93.96
81397;BME280;70852;49.908;8.126;2024-01-30T04:05:31;101640.22;;;-1.27;93.69
81397;BME280;70852;49.908;8.126;2024-01-30T04:07:56;101636.47;;;-1.32;93.29
81397;BME280;70852;49.908;8.126;2024-01-30T04:10:24;101636.25;;;-1.37;93.25
81397;BME280;70852;49.908;8.126;2024-01-30T04:12:50;101636.88;;;-1.35;93.06
81397;BME280;70852;49.908;8.126;2024-01-30T04:15:19;101632.72;;;-1.44;93.10
81397;BME280;70852;49.908;8.126;2024-01-30T04:17:46;101638.56;;;-1.41;92.82
81397;BME280;70852;49.908;8.126;2024-01-30T04:20:14;101635.00;;;-1.35;92.89
81397;BME280;70852;49.908;8.126;2024-01-30T04:22:48;101638.34;;;-1.46;92.39
81397;BME280;70852;49.908;8.126;2024-01-30T04:25:13;101644.38;;;-1.64;93.09
81397;BME280;70852;49.908;8.126;2024-01-30T04:27:44;101627.06;;;-1.63;93.71
81397;BME280;70852;49.908;8.126;2024-01-30T04:30:12;101637.47;;;-1.66;93.62
81397;BME280;70852;49.908;8.126;2024-01-30T04:32:45;101638.94;;;-1.57;93.17
81397;BME280;70852;49.908;8.126;2024-01-30T04:35:12;101644.16;;;-1.62;93.28
81397;BME280;70852;49.908;8.126;2024-01-30T04:37:38;101642.28;;;-1.55;93.22
81397;BME280;70852;49.908;8.126;2024-01-30T04:40:04;101644.78;;;-1.47;93.31
81397;BME280;70852;49.908;8.126;2024-01-30T04:42:35;101645.03;;;-1.49;92.31
81397;BME280;70852;49.908;8.126;2024-01-30T04:45:05;101641.25;;;-1.54;92.56
81397;BME280;70852;49.908;8.126;2024-01-30T04:47:30;101638.75;;;-1.56;92.86
81397;BME280;70852;49.908;8.126;2024-01-30T04:49:58;101643.09;;;-1.68;92.91
81397;BME280;70852;49.908;8.126;2024-01-30T04:52:23;101649.56;;;-1.69;93.57
81397;BME280;70852;49.908;8.126;2024-01-30T04:54:48;101646.00;;;-1.76;93.99
81397;BME280;70852;49.908;8.126;2024-01-30T04:57:14;101647.28;;;-1.72;93.86
81397;BME280;70852;49.908;8.126;2024-01-30T04:59:39;101645.22;;;-1.50;92.89
81397;BME280;70852;49.908;8.126;2024-01-30T05:02:04;101640.22;;;-1.53;93.38
81397;BME280;70852;49.908;8.126;2024-01-30T05:04:32;101641.06;;;-1.53;93.03
81397;BME280;70852;49.908;8.126;2024-01-30T05:07:02;101651.25;;;-1.48;92.50
81397;BME280;70852;49.908;8.126;2024-01-30T05:09:28;101646.47;;;-1.53;92.65
81397;BME280;70852;49.908;8.126;2024-01-30T05:11:53;101653.97;;;-1.55;92.32
81397;BME280;70852;49.908;8.126;2024-01-30T05:14:18;101653.13;;;-1.62;92.31
81397;BME280;70852;49.908;8.126;2024-01-30T05:16:46;101649.78;;;-1.64;92.44
81397;BME280;70852;49.908;8.126;2024-01-30T05:19:14;101646.03;;;-1.63;92.75
81397;BME280;70852;49.908;8.126;2024-01-30T05:21:42;101644.56;;;-1.59;93.18
81397;BME280;70852;49.908;8.126;2024-01-30T05:24:07;101654.81;;;-1.61;93.14
81397;BME280;70852;49.908;8.126;2024-01-30T05:26:37;101649.34;;;-1.67;93.24
81397;BME280;70852;49.908;8.126;2024-01-30T05:29:02;101656.66;;;-1.68;92.96
81397;BME280;70852;49.908;8.126;2024-01-30T05:31:28;101652.50;;;-1.70;92.87
81397;BME280;70852;49.908;8.126;2024-01-30T05:33:54;101646.00;;;-1.69;92.93
81397;BME280;70852;49.908;8.126;2024-01-30T05:36:19;101648.28;;;-1.79;93.49
81397;BME280;70852;49.908;8.126;2024-01-30T05:38:45;101655.81;;;-1.75;93.25
81397;BME280;70852;49.908;8.126;2024-01-30T05:41:11;101652.91;;;-1.73;93.06
81397;BME280;70852;49.908;8.126;2024-01-30T05:43:36;101643.75;;;-1.72;93.22
81397;BME280;70852;49.908;8.126;2024-01-30T05:46:02;101644.97;;;-1.75;92.93
81397;BME280;70852;49.908;8.126;2024-01-30T05:48:29;101644.38;;;-1.70;93.47
81397;BME280;70852;49.908;8.126;2024-01-30T05:50:58;101643.09;;;-1.81;93.98
81397;BME280;70852;49.908;8.126;2024-01-30T05:53:27;101646.22;;;-1.77;94.35
81397;BME280;70852;49.908;8.126;2024-01-30T05:55:52;101653.34;;;-1.63;94.33
81397;BME280;70852;49.908;8.126;2024-01-30T05:58:20;101652.09;;;-1.54;93.50
81397;BME280;70852;49.908;8.126;2024-01-30T06:00:50;101648.72;;;-1.69;93.44
81397;BME280;70852;49.908;8.126;2024-01-30T06:03:18;101644.56;;;-1.59;93.30
81397;BME280;70852;49.908;8.126;2024-01-30T06:05:43;101650.16;;;-1.80;93.65
81397;BME280;70852;49.908;8.126;2024-01-30T06:08:11;101643.94;;;-1.74;94.07
81397;BME280;70852;49.908;8.126;2024-01-30T06:10:36;101650.19;;;-1.67;93.33
81397;BME280;70852;49.908;8.126;2024-01-30T06:13:01;101649.78;;;-1.70;93.14
81397;BME280;70852;49.908;8.126;2024-01-30T06:15:27;101648.72;;;-1.76;93.90
81397;BME280;70852;49.908;8.126;2024-01-30T06:17:55;101656.66;;;-1.68;94.03
81397;BME280;70852;49.908;8.126;2024-01-30T06:20:27;101658.75;;;-1.70;93.46
81397;BME280;70852;49.908;8.126;2024-01-30T06:22:52;101654.56;;;-1.72;93.12
81397;BME280;70852;49.908;8.126;2024-01-30T06:25:17;101654.78;;;-1.74;93.92
81397;BME280;70852;49.908;8.126;2024-01-30T06:27:45;101661.41;;;-1.83;93.98
81397;BME280;70852;49.908;8.126;2024-01-30T06:30:13;101662.91;;;-1.74;93.88
81397;BME280;70852;49.908;8.126;2024-01-30T06:32:42;101662.91;;;-1.74;93.66
81397;BME280;70852;49.908;8.126;2024-01-30T06:35:08;101658.72;;;-1.76;93.35
81397;BME280;70852;49.908;8.126;2024-01-30T06:37:36;101665.16;;;-1.77;93.86
81397;BME280;70852;49.908;8.126;2024-01-30T06:40:02;101666.66;;;-1.68;93.93
81397;BME280;70852;49.908;8.126;2024-01-30T06:42:29;101666.25;;;-1.72;93.45
81397;BME280;70852;49.908;8.126;2024-01-30T06:45:00;101664.97;;;-1.76;93.87
81397;BME280;70852;49.908;8.126;2024-01-30T06:47:27;101665.13;;;-1.91;93.82
81397;BME280;70852;49.908;8.126;2024-01-30T06:49:54;101665.50;;;-2.00;94.86
81397;BME280;70852;49.908;8.126;2024-01-30T06:52:19;101669.28;;;-1.95;94.85
81397;BME280;70852;49.908;8.126;2024-01-30T06:54:45;101669.31;;;-1.88;94.23
81397;BME280;70852;49.908;8.126;2024-01-30T06:57:10;101658.47;;;-1.88;94.08
81397;BME280;70852;49.908;8.126;2024-01-30T06:59:39;101662.91;;;-1.74;94.14
81397;BME280;70852;49.908;8.126;2024-01-30T07:02:10;101662.91;;;-1.80;93.41
81397;BME280;70852;49.908;8.126;2024-01-30T07:04:38;101667.69;;;-1.76;93.25
81397;BME280;70852;49.908;8.126;2024-01-30T07:07:04;101663.69;;;-1.80;93.08
81397;BME280;70852;49.908;8.126;2024-01-30T07:09:30;101672.06;;;-1.75;92.89
81397;BME280;70852;49.908;8.126;2024-01-30T07:11:56;101664.53;;;-1.79;92.84
81397;BME280;70852;49.908;8.126;2024-01-30T07:14:23;101667.91;;;-1.71;92.56
81397;BME280;70852;49.908;8.126;2024-01-30T07:16:51;101672.28;;;-1.63;92.51
81397;BME280;70852;49.908;8.126;2024-01-30T07:19:19;101670.63;;;-1.64;92.22
81397;BME280;70852;49.908;8.126;2024-01-30T07:21:44;101671.03;;;-1.67;92.11
81397;BME280;70852;49.908;8.126;2024-01-30T07:24:09;101672.28;;;-1.57;92.25
81397;BME280;70852;49.908;8.126;2024-01-30T07:26:35;101673.78;;;-1.61;92.35
81397;BME280;70852;49.908;8.126;2024-01-30T07:29:03;101675.44;;;-1.53;91.63
81397;BME280;70852;49.908;8.126;2024-01-30T07:31:29;101668.16;;;-1.59;91.86
81397;BME280;70852;49.908;8.126;2024-01-30T07:33:59;101673.16;;;-1.50;91.81
81397;BME280;70852;49.908;8.126;2024-01-30T07:36:27;101673.75;;;-1.48;92.51
81397;BME280;70852;49.908;8.126;2024-01-30T07:38:52;101672.50;;;-1.58;92.35
81397;BME280;70852;49.908;8.126;2024-01-30T07:41:20;101679.41;;;-1.49;92.98
81397;BME280;70852;49.908;8.126;2024-01-30T07:43:50;101673.78;;;-1.54;93.20
81397;BME280;70852;49.908;8.126;2024-01-30T07:46:15;101671.28;;;-1.49;92.38
81397;BME280;70852;49.908;8.126;2024-01-30T07:48:43;101669.00;;;-1.39;93.14
81397;BME280;70852;49.908;8.126;2024-01-30T07:51:11;101675.25;;;-1.25;92.51
81397;BME280;70852;49.908;8.126;2024-01-30T07:53:36;101678.59;;;-1.23;92.14
81397;BME280;70852;49.908;8.126;2024-01-30T07:56:06;101686.94;;;-1.18;92.18
81397;BME280;70852;49.908;8.126;2024-01-30T07:58:31;101699.03;;;-1.01;91.73
81397;BME280;70852;49.908;8.126;2024-01-30T08:00:59;101693.41;;;-0.93;91.66
81397;BME280;70852;49.908;8.126;2024-01-30T08:03:25;101694.88;;;-0.97;91.29
81397;BME280;70852;49.908;8.126;2024-01-30T08:05:50;101691.94;;;-0.82;91.58
81397;BME280;70852;49.908;8.126;2024-01-30T08:08:18;101700.91;;;-0.68;91.18
81397;BME280;70852;49.908;8.126;2024-01-30T08:10:43;101692.34;;;-0.79;91.37
81397;BME280;70852;49.908;8.126;2024-01-30T08:13:11;101701.09;;;-0.63;91.41
81397;BME280;70852;49.908;8.126;2024-01-30T08:15:36;101702.31;;;-0.53;91.72
81397;BME280;70852;49.908;8.126;2024-01-30T08:18:04;101696.91;;;-0.46;91.13
81397;BME280;70852;49.908;8.126;2024-01-30T08:20:31;101696.91;;;-0.46;91.29
81397;BME280;70852;49.908;8.126;2024-01-30T08:22:57;101703.13;;;-0.39;90.94
81397;BME280;70852;49.908;8.126;2024-01-30T08:25:27;101701.47;;;-0.33;90.90
81397;BME280;70852;49.908;8.126;2024-01-30T08:27:55;101701.47;;;-0.40;91.74
81397;BME280;70852;49.908;8.126;2024-01-30T08:30:23;101700.22;;;-0.44;91.67
81397;BME280;70852;49.908;8.126;2024-01-30T08:32:53;101693.31;;;-0.33;91.34
81397;BME280;70852;49.908;8.126;2024-01-30T08:35:18;101689.53;;;-0.26;91.22
81397;BME280;70852;49.908;8.126;2024-01-30T08:37:51;101687.22;;;-0.22;91.03
81397;BME280;70852;49.908;8.126;2024-01-30T08:40:16;101690.78;;;-0.28;90.91
81397;BME280;70852;49.908;8.126;2024-01-30T08:42:41;101698.53;;;-0.32;91.43
81397;BME280;70852;49.908;8.126;2024-01-30T08:45:07;101706.44;;;-0.30;91.40
81397;BME280;70852;49.908;8.126;2024-01-30T08:47:34;101699.56;;;-0.26;91.06
81397;BME280;70852;49.908;8.126;2024-01-30T08:50:04;101707.91;;;-0.21;90.95
81397;BME280;70852;49.908;8.126;2024-01-30T08:52:29;101700.97;;;-0.17;90.57
81397;BME280;70852;49.908;8.126;2024-01-30T08:54:57;101705.13;;;-0.02;90.31
81397;BME280;70852;49.908;8.126;2024-01-30T08:57:27;101694.66;;;-0.05;90.83
81397;BME280;70852;49.908;8.126;2024-01-30T08:59:57;101704.91;;;-0.07;91.29
81397;BME280;70852;49.908;8.126;2024-01-30T09:02:25;101698.41;;;0.01;90.95
81397;BME280;70852;49.908;8.126;2024-01-30T09:04:50;101697.94;;;0.11;90.17
81397;BME280;70852;49.908;8.126;2024-01-30T09:07:16;101693.28;;;0.24;90.42
81397;BME280;70852;49.908;8.126;2024-01-30T09:09:41;101692.94;;;0.08;90.55
81397;BME280;70852;49.908;8.126;2024-01-30T09:12:11;101695.16;;;0.24;90.31
81397;BME280;70852;49.908;8.126;2024-01-30T09:14:38;101699.28;;;0.40;89.52
81397;BME280;70852;49.908;8.126;2024-01-30T09:17:06;101702.13;;;0.51;88.92
81397;BME280;70852;49.908;8.126;2024-01-30T09:19:32;101706.31;;;0.47;89.46
81397;BME280;70852;49.908;8.126;2024-01-30T09:21:57;101706.06;;;0.55;89.87
81397;BME280;70852;49.908;8.126;2024-01-30T09:24:23;101706.63;;;0.64;89.18
81397;BME280;70852;49.908;8.126;2024-01-30T09:26:48;101704.75;;;0.64;89.25
81397;BME280;70852;49.908;8.126;2024-01-30T09:29:15;101712.81;;;0.78;89.00
81397;BME280;70852;49.908;8.126;2024-01-30T09:31:46;101711.56;;;0.80;89.00
81397;BME280;70852;49.908;8.126;2024-01-30T09:34:13;101716.78;;;0.82;88.71
81397;BME280;70852;49.908;8.126;2024-01-30T09:36:39;101713.16;;;0.88;88.74
81397;BME280;70852;49.908;8.126;2024-01-30T09:39:06;101715.22;;;0.92;88.96
81397;BME280;70852;49.908;8.126;2024-01-30T09:41:44;101715.56;;;1.02;88.47
81397;BME280;70852;49.908;8.126;2024-01-30T09:44:13;101724.06;;;1.13;86.99
81397;BME280;70852;49.908;8.126;2024-01-30T09:46:41;101716.66;;;1.20;87.21
81397;BME280;70852;49.908;8.126;2024-01-30T09:49:08;101718.66;;;1.06;88.09
81397;BME280;70852;49.908;8.126;2024-01-30T09:51:34;101720.22;;;1.20;88.06
81397;BME280;70852;49.908;8.126;2024-01-30T09:54:02;101716.88;;;1.18;88.39
81397;BME280;70852;49.908;8.126;2024-01-30T09:56:28;101713.28;;;1.24;88.45
81397;BME280;70852;49.908;8.126;2024-01-30T09:58:56;101712.03;;;1.27;87.70
81397;BME280;70852;49.908;8.126;2024-01-30T10:01:24;101716.69;;;1.38;87.22
81397;BME280;70852;49.908;8.126;2024-01-30T10:03:50;101711.44;;;1.61;86.88
81397;BME280;70852;49.908;8.126;2024-01-30T10:06:20;101708.16;;;1.77;86.34
81397;BME280;70852;49.908;8.126;2024-01-30T10:08:46;101709.41;;;1.93;86.40
81397;BME280;70852;49.908;8.126;2024-01-30T10:11:11;101705.09;;;2.04;86.03
81397;BME280;70852;49.908;8.126;2024-01-30T10:13:38;101714.13;;;2.04;85.52
81397;BME280;70852;49.908;8.126;2024-01-30T10:16:07;101704.22;;;2.10;85.36
81397;BME280;70852;49.908;8.126;2024-01-30T10:18:32;101708.28;;;2.49;84.29
81397;BME280;70852;49.908;8.126;2024-01-30T10:20:58;101707.22;;;2.50;84.14
81397;BME280;70852;49.908;8.126;2024-01-30T10:23:24;101703.38;;;2.69;83.72
81397;BME280;70852;49.908;8.126;2024-01-30T10:25:51;101714.78;;;3.43;81.41
81397;BME280;70852;49.908;8.126;2024-01-30T10:28:17;101709.91;;;4.20;78.59
81397;BME280;70852;49.908;8.126;2024-01-30T10:30:44;101714.94;;;4.11;78.39
81397;BME280;70852;49.908;8.126;2024-01-30T10:33:09;101714.13;;;3.99;78.90
81397;BME280;70852;49.908;8.126;2024-01-30T10:35:37;101713.34;;;3.63;80.14
81397;BME280;70852;49.908;8.126;2024-01-30T10:38:05;101720.00;;;3.67;81.26
81397;BME280;70852;49.908;8.126;2024-01-30T10:40:35;101715.59;;;3.78;80.07
81397;BME280;70852;49.908;8.126;2024-01-30T10:43:03;101721.91;;;3.55;80.88
81397;BME280;70852;49.908;8.126;2024-01-30T10:45:29;101720.22;;;3.54;81.32
81397;BME280;70852;49.908;8.126;2024-01-30T10:47:58;101719.53;;;3.71;82.22
81397;BME280;70852;49.908;8.126;2024-01-30T10:50:28;101718.94;;;4.20;79.64
81397;BME280;70852;49.908;8.126;2024-01-30T10:52:55;101719.34;;;4.69;77.41
81397;BME280;70852;49.908;8.126;2024-01-30T10:55:25;101707.97;;;5.05;75.68
81397;BME280;70852;49.908;8.126;2024-01-30T10:57:53;101699.56;;;4.95;76.26
81397;BME280;70852;49.908;8.126;2024-01-30T11:00:22;101691.09;;;4.80;76.47
81397;BME280;70852;49.908;8.126;2024-01-30T11:02:49;101700.59;;;4.32;78.24
81397;BME280;70852;49.908;8.126;2024-01-30T11:05:23;101700.25;;;4.29;79.08
81397;BME280;70852;49.908;8.126;2024-01-30T11:07:51;101698.34;;;4.29;79.89
81397;BME280;70852;49.908;8.126;2024-01-30T11:10:21;101700.72;;;4.26;79.78
81397;BME280;70852;49.908;8.126;2024-01-30T11:12:52;101689.19;;;4.24;80.66
81397;BME280;70852;49.908;8.126;2024-01-30T11:15:23;101689.56;;;4.27;81.04
81397;BME280;70852;49.908;8.126;2024-01-30T11:20:16;101668.75;;;4.26;80.66
81397;BME280;70852;49.908;8.126;2024-01-30T11:22:42;101678.16;;;4.47;80.41
81397;BME280;70852;49.908;8.126;2024-01-30T11:25:16;101685.16;;;4.26;81.04
81397;BME280;70852;49.908;8.126;2024-01-30T11:27:42;101673.34;;;4.37;81.08
81397;BME280;70852;49.908;8.126;2024-01-30T11:30:08;101675.84;;;4.39;81.52
81397;BME280;70852;49.908;8.126;2024-01-30T11:32:36;101672.38;;;4.44;81.57
81397;BME280;70852;49.908;8.126;2024-01-30T11:35:07;101667.97;;;4.43;81.86
81397;BME280;70852;49.908;8.126;2024-01-30T11:37:37;101671.94;;;4.80;80.68
81397;BME280;70852;49.908;8.126;2024-01-30T11:40:04;101676.69;;;5.18;79.77
81397;BME280;70852;49.908;8.126;2024-01-30T11:42:29;101682.38;;;5.33;79.57
81397;BME280;70852;49.908;8.126;2024-01-30T11:44:55;101679.66;;;5.33;78.99
81397;BME280;70852;49.908;8.126;2024-01-30T11:47:22;101679.88;;;5.48;78.68
81397;BME280;70852;49.908;8.126;2024-01-30T11:49:50;101676.53;;;5.63;77.97
81397;BME280;70852;49.908;8.126;2024-01-30T11:52:18;101670.34;;;5.73;78.14
81397;BME280;70852;49.908;8.126;2024-01-30T11:54:46;101678.50;;;5.68;77.50
81397;BME280;70852;49.908;8.126;2024-01-30T11:57:11;101672.72;;;5.86;77.40
81397;BME280;70852;49.908;8.126;2024-01-30T11:59:36;101669.56;;;6.16;76.30
81397;BME280;70852;49.908;8.126;2024-01-30T12:02:04;101660.88;;;6.46;75.28
81397;BME280;70852;49.908;8.126;2024-01-30T12:04:32;101647.59;;;6.65;73.85
81397;BME280;70852;49.908;8.126;2024-01-30T12:06:59;101653.06;;;7.28;72.59
81397;BME280;70852;49.908;8.126;2024-01-30T12:09:27;101649.56;;;7.38;71.13
81397;BME280;70852;49.908;8.126;2024-01-30T12:11:55;101652.13;;;7.55;71.01
81397;BME280;70852;49.908;8.126;2024-01-30T12:14:23;101646.00;;;7.90;70.19
81397;BME280;70852;49.908;8.126;2024-01-30T12:16:54;101649.75;;;7.68;70.56
81397;BME280;70852;49.908;8.126;2024-01-30T12:19:26;101652.56;;;7.37;72.12
81397;BME280;70852;49.908;8.126;2024-01-30T12:21:57;101646.94;;;7.21;73.00
81397;BME280;70852;49.908;8.126;2024-01-30T12:24:27;101636.03;;;7.31;72.92
81397;BME280;70852;49.908;8.126;2024-01-30T12:26:52;101640.88;;;7.56;71.96
81397;BME280;70852;49.908;8.126;2024-01-30T12:29:21;101641.56;;;7.37;72.01
81397;BME280;70852;49.908;8.126;2024-01-30T12:31:52;101629.47;;;6.95;74.08
81397;BME280;70852;49.908;8.126;2024-01-30T12:34:17;101643.38;;;6.84;74.89
81397;BME280;70852;49.908;8.126;2024-01-30T12:36:43;101633.16;;;6.79;75.98
81397;BME280;70852;49.908;8.126;2024-01-30T12:39:14;101645.34;;;6.88;75.11
81397;BME280;70852;49.908;8.126;2024-01-30T12:41:42;101639.03;;;6.88;75.22
81397;BME280;70852;49.908;8.126;2024-01-30T12:44:07;101637.06;;;6.83;75.18
81397;BME280;70852;49.908;8.126;2024-01-30T12:46:36;101626.97;;;6.94;75.14
81397;BME280;70852;49.908;8.126;2024-01-30T12:49:01;101622.88;;;6.96;75.68
81397;BME280;70852;49.908;8.126;2024-01-30T12:51:29;101628.41;;;7.02;75.21
81397;BME280;70852;49.908;8.126;2024-01-30T12:53:56;101615.09;;;6.83;76.19